Time;durP1;ratioP1;P1;durP2;ratioP2;P2;SDS_P1;SDS_P2;PMS_P1;PMS_P2;Temp;Humidity;BMP_temperature;BMP_pressure;BME280_temperature;BME280_humidity;BME280_pressure;Samples;Min_cycle;Max_cycle;Signal;HPM_P1;HPM_P2
2024/01/09 00:01:15;;;;;;;9.53;4.80;;;;;;;;;;5000507;28;20041;-59
2024/01/09 00:04:08;;;;;;;10.30;4.80;;;;;;;;;;4995977;28;20062;-62
2024/01/09 00:06:56;;;;;;;12.47;4.93;;;;;;;;;;5003235;28;20135;-62
2024/01/09 00:09:50;;;;;;;9.53;4.50;;;;;;;;;;5001923;28;20123;-62
2024/01/09 00:12:37;;;;;;;8.38;4.45;;;;;;;;;;5001446;28;21886;-62
2024/01/09 00:15:31;;;;;;;9.03;4.53;;;;;;;;;;5000253;28;20073;-62
2024/01/09 00:18:18;;;;;;;8.32;3.63;;;;;;;;;;5001783;28;20395;-63
2024/01/09 00:21:12;;;;;;;13.67;4.23;;;;;;;;;;5000410;28;20054;-62
2024/01/09 00:23:59;;;;;;;9.77;4.40;;;;;;;;;;4996910;28;20085;-62
2024/01/09 00:26:53;;;;;;;10.53;4.53;;;;;;;;;;4996617;28;20120;-62
2024/01/09 00:29:26;;;;;;;9.47;5.10;;;;;;;;;;4998270;28;20054;-62
2024/01/09 00:32:07;;;;;;;12.07;4.53;;;;;;;;;;4993736;28;20471;-58
2024/01/09 00:34:36;;;;;;;11.07;4.13;;;;;;;;;;4992442;28;20054;-57
2024/01/09 00:37:10;;;;;;;9.80;4.40;;;;;;;;;;5000795;28;20498;-55
2024/01/09 00:39:37;;;;;;;;;;;;;;;;;;4996632;28;20058;-57
2024/01/09 00:42:11;;;;;;;7.03;3.57;;;;;;;;;;5003648;28;19925;-63
2024/01/09 00:44:41;;;;;;;7.57;4.07;;;;;;;;;;5002241;28;20053;-57
2024/01/09 00:47:08;;;;;;;9.17;4.30;;;;;;;;;;4997722;28;20066;-61
2024/01/09 00:49:45;;;;;;;10.67;4.40;;;;;;;;;;5001547;28;20087;-61
2024/01/09 00:52:12;;;;;;;8.30;4.00;;;;;;;;;;5001958;28;20050;-62
2024/01/09 00:54:39;;;;;;;;;;;;;;;;;;4998067;28;20069;-60
2024/01/09 00:57:34;;;;;;;8.67;4.40;;;;;;;;;;5000551;28;20037;-61
2024/01/09 01:00:21;;;;;;;12.20;4.43;;;;;;;;;;5001205;28;20117;-62
2024/01/09 01:03:15;;;;;;;8.43;4.70;;;;;;;;;;4999338;28;20045;-62
2024/01/09 01:06:02;;;;;;;11.27;5.03;;;;;;;;;;4999153;28;20135;-62
2024/01/09 01:08:56;;;;;;;11.07;4.77;;;;;;;;;;5001512;28;20050;-62
2024/01/09 01:11:43;;;;;;;9.43;4.57;;;;;;;;;;5002597;28;20132;-54
2024/01/09 01:14:37;;;;;;;8.63;4.57;;;;;;;;;;5000357;28;20053;-56
2024/01/09 01:17:24;;;;;;;8.50;4.90;;;;;;;;;;5001344;28;20502;-53
2024/01/09 01:20:18;;;;;;;9.30;4.13;;;;;;;;;;4999782;28;20065;-48
2024/01/09 01:23:05;;;;;;;8.23;4.40;;;;;;;;;;5000884;28;20264;-52
2024/01/09 01:25:59;;;;;;;10.13;4.13;;;;;;;;;;4998897;28;20407;-53
2024/01/09 01:28:52;;;;;;;8.33;4.13;;;;;;;;;;4986376;28;20190;-61
2024/01/09 01:31:53;;;;;;;9.77;4.70;;;;;;;;;;4980643;28;20173;-62
2024/01/09 01:34:48;;;;;;;8.23;3.87;;;;;;;;;;4980136;28;20784;-62
2024/01/09 01:37:35;;;;;;;11.00;4.13;;;;;;;;;;4977925;28;20050;-62
2024/01/09 01:40:29;;;;;;;7.67;4.50;;;;;;;;;;4977773;28;20074;-61
2024/01/09 01:43:16;;;;;;;8.10;4.10;;;;;;;;;;4973434;28;20049;-51
2024/01/09 01:46:10;;;;;;;9.03;4.13;;;;;;;;;;4981310;28;20609;-50
2024/01/09 01:48:57;;;;;;;11.37;5.00;;;;;;;;;;4981833;28;20057;-54
2024/01/09 01:51:51;;;;;;;13.27;5.07;;;;;;;;;;4977733;28;20046;-52
2024/01/09 01:54:40;;;;;;;8.07;4.00;;;;;;;;;;4980981;28;20061;-52
2024/01/09 01:57:34;;;;;;;8.70;5.10;;;;;;;;;;4976072;28;20058;-55
2024/01/09 02:00:22;;;;;;;7.97;4.73;;;;;;;;;;4980102;28;20050;-57
2024/01/09 02:03:16;;;;;;;9.83;4.60;;;;;;;;;;4981891;28;20058;-56
2024/01/09 02:06:03;;;;;;;10.80;4.57;;;;;;;;;;4979692;28;20050;-55
2024/01/09 02:08:57;;;;;;;8.70;4.50;;;;;;;;;;4984942;28;20065;-62
2024/01/09 02:11:46;;;;;;;11.63;5.20;;;;;;;;;;4983497;28;20066;-67
2024/01/09 02:14:38;;;;;;;12.80;4.87;;;;;;;;;;4984024;28;20076;-67
2024/01/09 02:17:25;;;;;;;14.87;6.43;;;;;;;;;;4984146;28;20054;-67
2024/01/09 02:20:22;;;;;;;12.67;6.07;;;;;;;;;;4985231;28;20112;-67
2024/01/09 02:23:08;;;;;;;16.73;7.10;;;;;;;;;;4980720;28;20046;-67
2024/01/09 02:26:02;;;;;;;10.33;5.10;;;;;;;;;;4978626;28;20050;-59
2024/01/09 02:29:19;;;;;;;17.77;7.00;;;;;;;;;;4993739;28;20133;-59
2024/01/09 02:32:21;;;;;;;22.38;6.32;;;;;;;;;;5001558;28;20406;-56
2024/01/09 02:35:08;;;;;;;27.37;6.37;;;;;;;;;;5000899;28;20148;-58
2024/01/09 02:38:02;;;;;;;45.17;7.22;;;;;;;;;;5005990;28;20054;-55
2024/01/09 02:40:49;;;;;;;38.57;9.17;;;;;;;;;;5001770;28;20462;-62
2024/01/09 02:43:43;;;;;;;69.25;9.75;;;;;;;;;;5002758;28;20581;-58
2024/01/09 02:46:37;;;;;;;134.13;13.07;;;;;;;;;;4998205;28;20045;-61
2024/01/09 02:49:30;;;;;;;117.60;13.13;;;;;;;;;;5001920;28;20576;-60
2024/01/09 02:52:25;;;;;;;76.20;11.05;;;;;;;;;;5003115;28;20124;-62
2024/01/09 02:55:19;;;;;;;87.47;11.90;;;;;;;;;;5002098;28;20524;-67
2024/01/09 02:58:06;;;;;;;58.15;11.25;;;;;;;;;;5003648;28;20057;-66
2024/01/09 03:01:01;;;;;;;70.47;11.63;;;;;;;;;;5002354;28;20062;-67
2024/01/09 03:03:47;;;;;;;94.38;12.48;;;;;;;;;;5001953;28;20425;-66
2024/01/09 03:06:41;;;;;;;130.73;14.07;;;;;;;;;;5002690;28;20050;-58
2024/01/09 03:09:29;;;;;;;142.50;11.85;;;;;;;;;;5004405;28;20142;-67
2024/01/09 03:12:23;;;;;;;126.20;13.67;;;;;;;;;;5001727;28;20049;-67
2024/01/09 03:15:10;;;;;;;85.93;14.38;;;;;;;;;;5001370;28;20137;-67
2024/01/09 03:18:04;;;;;;;65.32;13.68;;;;;;;;;;5002128;28;20046;-67
2024/01/09 03:20:51;;;;;;;45.13;9.90;;;;;;;;;;4999116;28;20797;-67
2024/01/09 03:23:45;;;;;;;75.50;13.20;;;;;;;;;;5000639;28;20305;-58
2024/01/09 03:26:32;;;;;;;52.10;13.52;;;;;;;;;;5000343;28;20045;-60
2024/01/09 03:29:33;;;;;;;42.67;12.02;;;;;;;;;;4991699;28;20489;-55
2024/01/09 03:32:20;;;;;;;42.92;13.27;;;;;;;;;;4981987;28;20042;-59
2024/01/09 03:35:14;;;;;;;40.38;12.02;;;;;;;;;;4985558;28;20273;-61
2024/01/09 03:38:01;;;;;;;46.08;10.85;;;;;;;;;;4987969;28;20593;-59
2024/01/09 03:40:55;;;;;;;28.70;9.85;;;;;;;;;;4981551;28;20051;-58
2024/01/09 03:43:42;;;;;;;36.28;10.07;;;;;;;;;;4987572;28;20125;-56
2024/01/09 03:46:36;;;;;;;35.53;12.23;;;;;;;;;;4980645;28;20086;-57
2024/01/09 03:49:23;;;;;;;35.33;12.70;;;;;;;;;;4982413;28;20050;-58
2024/01/09 03:52:17;;;;;;;32.15;11.05;;;;;;;;;;4984864;28;20529;-61
2024/01/09 03:55:04;;;;;;;35.97;11.10;;;;;;;;;;4983810;28;20050;-62
2024/01/09 03:57:58;;;;;;;32.28;10.15;;;;;;;;;;4987471;28;20042;-61
2024/01/09 04:00:45;;;;;;;30.48;10.75;;;;;;;;;;4983100;28;20066;-61
2024/01/09 04:03:39;;;;;;;30.98;11.10;;;;;;;;;;4980699;28;20050;-62
2024/01/09 04:06:26;;;;;;;27.58;10.75;;;;;;;;;;4985396;28;20532;-66
2024/01/09 04:09:20;;;;;;;37.28;10.15;;;;;;;;;;4982414;28;20128;-67
2024/01/09 04:12:07;;;;;;;38.53;10.18;;;;;;;;;;4986448;28;20433;-67
2024/01/09 04:15:01;;;;;;;21.92;9.10;;;;;;;;;;4986142;28;20054;-67
2024/01/09 04:17:48;;;;;;;26.38;9.07;;;;;;;;;;4985317;28;20498;-66
2024/01/09 04:20:42;;;;;;;24.20;8.82;;;;;;;;;;4971795;28;20065;-59
2024/01/09 04:23:30;;;;;;;23.63;9.00;;;;;;;;;;4982750;28;20057;-59
2024/01/09 04:26:24;;;;;;;22.75;8.75;;;;;;;;;;4981085;28;20056;-59
2024/01/09 04:29:25;;;;;;;20.85;9.02;;;;;;;;;;4989821;28;20132;-58
2024/01/09 04:32:12;;;;;;;20.10;8.00;;;;;;;;;;5001097;28;20053;-62
2024/01/09 04:35:06;;;;;;;24.00;8.05;;;;;;;;;;5000169;28;20169;-66
2024/01/09 04:37:53;;;;;;;25.02;9.48;;;;;;;;;;5002275;28;20128;-67
2024/01/09 04:40:47;;;;;;;19.38;8.10;;;;;;;;;;4999771;28;20054;-66
2024/01/09 04:43:34;;;;;;;20.67;7.28;;;;;;;;;;4998519;28;20058;-65
2024/01/09 04:46:28;;;;;;;19.10;7.13;;;;;;;;;;4998529;28;20490;-64
2024/01/09 04:49:21;;;;;;;24.88;7.97;;;;;;;;;;4999900;28;20477;-61
2024/01/09 04:52:09;;;;;;;29.15;8.82;;;;;;;;;;5001948;28;20104;-61
2024/01/09 04:55:03;;;;;;;16.55;7.40;;;;;;;;;;5000284;28;20104;-60
2024/01/09 04:57:50;;;;;;;20.53;7.57;;;;;;;;;;4989882;28;20148;-60
2024/01/09 05:00:45;;;;;;;23.15;7.72;;;;;;;;;;4997738;28;20054;-60
2024/01/09 05:03:39;;;;;;;16.58;7.88;;;;;;;;;;5001237;28;20508;-52
2024/01/09 05:06:36;;;;;;;18.40;7.43;;;;;;;;;;5001046;28;20800;-52
2024/01/09 05:09:24;;;;;;;19.83;7.90;;;;;;;;;;5000771;28;20061;-52
2024/01/09 05:12:18;;;;;;;23.15;8.15;;;;;;;;;;4998288;28;20053;-49
2024/01/09 05:15:05;;;;;;;22.13;7.72;;;;;;;;;;5000296;28;20120;-50
2024/01/09 05:17:59;;;;;;;15.82;7.57;;;;;;;;;;5000913;28;20069;-60
2024/01/09 05:20:46;;;;;;;20.33;7.35;;;;;;;;;;4993221;28;20064;-60
2024/01/09 05:23:40;;;;;;;15.25;6.95;;;;;;;;;;4994641;28;20050;-60
2024/01/09 05:26:27;;;;;;;18.42;7.93;;;;;;;;;;4992073;28;20159;-60
2024/01/09 05:29:27;;;;;;;22.20;7.15;;;;;;;;;;4997262;28;20058;-57
2024/01/09 05:32:15;;;;;;;39.13;8.23;;;;;;;;;;4993097;28;20053;-59
2024/01/09 05:35:10;;;;;;;20.25;7.93;;;;;;;;;;5001023;28;20065;-59
2024/01/09 05:37:57;;;;;;;19.27;8.38;;;;;;;;;;5000689;28;20046;-60
2024/01/09 05:40:52;;;;;;;19.33;7.95;;;;;;;;;;4993551;28;20060;-60
2024/01/09 05:43:46;;;;;;;20.45;8.50;;;;;;;;;;5001262;28;20502;-60
2024/01/09 05:46:33;;;;;;;16.10;7.60;;;;;;;;;;5002760;28;20120;-59
2024/01/09 05:49:27;;;;;;;17.17;7.07;;;;;;;;;;5000892;28;20081;-59
2024/01/09 05:52:14;;;;;;;23.10;8.98;;;;;;;;;;4997200;28;20104;-60
2024/01/09 05:55:08;;;;;;;21.95;8.18;;;;;;;;;;5003170;28;20053;-60
2024/01/09 05:58:02;;;;;;;16.35;7.40;;;;;;;;;;5003266;28;20050;-56
2024/01/09 06:00:56;;;;;;;15.60;7.28;;;;;;;;;;4994228;28;20227;-47
2024/01/09 06:03:43;;;;;;;15.05;6.60;;;;;;;;;;4998457;28;20054;-48
2024/01/09 06:06:37;;;;;;;19.88;7.40;;;;;;;;;;5002986;28;20054;-48
2024/01/09 06:09:25;;;;;;;17.42;7.85;;;;;;;;;;5002766;28;20120;-48
2024/01/09 06:12:18;;;;;;;19.70;7.45;;;;;;;;;;5000714;28;20054;-47
2024/01/09 06:15:05;;;;;;;17.83;7.82;;;;;;;;;;5004486;28;20571;-50
2024/01/09 06:17:59;;;;;;;17.88;7.57;;;;;;;;;;5002639;28;22147;-51
2024/01/09 06:20:46;;;;;;;20.08;8.63;;;;;;;;;;5001908;28;20060;-51
2024/01/09 06:23:41;;;;;;;24.52;7.95;;;;;;;;;;5005078;28;20049;-52
2024/01/09 06:26:29;;;;;;;18.58;8.38;;;;;;;;;;5004699;28;20126;-61
2024/01/09 06:29:36;;;;;;;21.83;8.35;;;;;;;;;;5002325;28;20052;-59
2024/01/09 06:32:31;;;;;;;20.90;9.05;;;;;;;;;;5002363;28;20053;-60
2024/01/09 06:35:25;;;;;;;19.70;9.20;;;;;;;;;;5006780;28;21142;-60
2024/01/09 06:38:13;;;;;;;27.13;9.40;;;;;;;;;;5004224;28;20053;-60
2024/01/09 06:41:07;;;;;;;21.48;8.50;;;;;;;;;;5003962;28;20085;-60
2024/01/09 06:44:01;;;;;;;20.25;8.77;;;;;;;;;;5008945;28;20528;-60
2024/01/09 06:46:55;;;;;;;17.80;8.07;;;;;;;;;;5002806;28;20129;-60
2024/01/09 06:49:49;;;;;;;20.02;9.15;;;;;;;;;;5006002;28;20056;-60
2024/01/09 06:53:00;;;;;;;16.88;8.07;;;;;;;;;;5003535;28;20529;-61
2024/01/09 06:55:46;;;;;;;25.98;9.80;;;;;;;;;;5005444;28;20089;-53
2024/01/09 06:58:40;;;;;;;22.65;8.68;;;;;;;;;;5005024;28;20092;-60
2024/01/09 07:01:27;;;;;;;26.50;9.88;;;;;;;;;;5002486;28;20050;-61
2024/01/09 07:04:21;;;;;;;25.95;9.88;;;;;;;;;;5003563;28;20054;-60
2024/01/09 07:07:08;;;;;;;22.00;9.02;;;;;;;;;;5002449;28;20053;-60
2024/01/09 07:10:15;;;;;;;15.52;6.82;;;;;;;;;;5004645;28;20058;-60
2024/01/09 07:13:03;;;;;;;17.33;7.38;;;;;;;;;;4995448;28;20539;-57
2024/01/09 07:15:57;;;;;;;26.45;9.50;;;;;;;;;;5001727;28;20580;-57
2024/01/09 07:18:44;;;;;;;33.17;11.13;;;;;;;;;;5004971;28;20107;-56
2024/01/09 07:21:38;;;;;;;28.63;11.52;;;;;;;;;;5001162;28;20073;-48
2024/01/09 07:24:26;;;;;;;27.70;11.15;;;;;;;;;;5002893;28;20046;-47
2024/01/09 07:27:20;;;;;;;35.53;11.98;;;;;;;;;;5004697;28;20116;-53
2024/01/09 07:30:20;;;;;;;43.03;13.25;;;;;;;;;;5003252;28;20452;-54
2024/01/09 07:33:14;;;;;;;31.10;12.35;;;;;;;;;;5001688;28;20059;-55
2024/01/09 07:36:02;;;;;;;30.33;9.50;;;;;;;;;;5003938;28;20081;-56
2024/01/09 07:38:56;;;;;;;32.00;12.32;;;;;;;;;;5002010;28;20065;-55
2024/01/09 07:41:50;;;;;;;34.30;11.90;;;;;;;;;;4999272;28;20111;-53
2024/01/09 07:44:37;;;;;;;30.35;11.95;;;;;;;;;;5002995;28;20112;-52
2024/01/09 07:47:31;;;;;;;36.78;12.95;;;;;;;;;;5004951;28;20053;-52
2024/01/09 07:50:18;;;;;;;44.22;12.75;;;;;;;;;;5003630;28;20058;-60
2024/01/09 07:53:12;;;;;;;40.97;13.02;;;;;;;;;;5003117;28;20049;-65
2024/01/09 07:56:00;;;;;;;46.63;13.27;;;;;;;;;;5001786;28;20081;-65
2024/01/09 07:58:53;;;;;;;39.55;13.52;;;;;;;;;;4988257;28;20068;-65
2024/01/09 08:01:40;;;;;;;41.28;12.90;;;;;;;;;;4997413;28;20061;-65
2024/01/09 08:04:34;;;;;;;36.75;13.57;;;;;;;;;;5001912;28;20497;-65
2024/01/09 08:07:28;;;;;;;45.97;13.00;;;;;;;;;;4995917;28;20065;-65
2024/01/09 08:10:22;;;;;;;48.58;13.63;;;;;;;;;;5005392;28;20069;-65
2024/01/09 08:13:09;;;;;;;41.65;13.68;;;;;;;;;;5000466;28;20057;-65
2024/01/09 08:16:03;;;;;;;37.83;14.07;;;;;;;;;;5001849;28;20049;-65
2024/01/09 08:18:50;;;;;;;41.60;14.63;;;;;;;;;;5005086;28;20155;-60
2024/01/09 08:21:44;;;;;;;32.03;12.80;;;;;;;;;;5002491;28;20049;-57
2024/01/09 08:24:32;;;;;;;40.33;13.55;;;;;;;;;;4997816;28;20116;-56
2024/01/09 08:27:25;;;;;;;52.95;14.48;;;;;;;;;;5002293;28;20058;-55
2024/01/09 08:30:18;;;;;;;46.88;13.25;;;;;;;;;;5003637;28;20058;-57
2024/01/09 08:33:13;;;;;;;41.67;14.48;;;;;;;;;;5000345;28;20457;-57
2024/01/09 08:36:07;;;;;;;50.95;14.80;;;;;;;;;;5002121;28;20053;-53
2024/01/09 08:39:02;;;;;;;45.63;15.02;;;;;;;;;;5002701;28;20058;-60
2024/01/09 08:41:49;;;;;;;41.00;14.20;;;;;;;;;;5003368;28;20627;-60
2024/01/09 08:44:43;;;;;;;48.10;15.15;;;;;;;;;;4988799;28;20072;-60
2024/01/09 08:47:30;;;;;;;35.15;12.32;;;;;;;;;;5002111;28;20061;-45
2024/01/09 08:50:24;;;;;;;36.50;11.98;;;;;;;;;;5003954;28;20042;-48
2024/01/09 08:53:11;;;;;;;36.28;11.80;;;;;;;;;;4999350;28;20057;-50
2024/01/09 08:56:05;;;;;;;47.28;15.30;;;;;;;;;;5000750;28;20065;-47
2024/01/09 08:58:59;;;;;;;42.92;14.48;;;;;;;;;;4992476;28;20078;-47
2024/01/09 09:01:46;;;;;;;40.63;14.80;;;;;;;;;;4993811;28;22266;-49
2024/01/09 09:04:41;;;;;;;43.88;14.65;;;;;;;;;;5001582;28;20056;-46
2024/01/09 09:07:27;;;;;;;49.60;14.95;;;;;;;;;;5000315;28;20058;-46
2024/01/09 09:10:21;;;;;;;44.95;14.02;;;;;;;;;;5001031;28;20120;-50
2024/01/09 09:13:09;;;;;;;47.72;14.80;;;;;;;;;;4998582;28;20050;-48
2024/01/09 09:16:02;;;;;;;35.78;12.43;;;;;;;;;;5001518;28;20053;-66
2024/01/09 09:18:56;;;;;;;40.47;14.50;;;;;;;;;;5005620;28;20046;-54
2024/01/09 09:21:50;;;;;;;39.90;14.75;;;;;;;;;;4997297;28;20054;-54
2024/01/09 09:24:37;;;;;;;43.15;14.25;;;;;;;;;;5003720;28;20545;-54
2024/01/09 09:27:31;;;;;;;47.40;15.23;;;;;;;;;;5004695;28;20054;-55
2024/01/09 09:30:26;;;;;;;45.70;16.08;;;;;;;;;;5002969;28;20072;-58
2024/01/09 09:33:20;;;;;;;50.05;15.23;;;;;;;;;;5000102;28;20054;-56
2024/01/09 09:36:15;;;;;;;48.63;15.75;;;;;;;;;;5005890;28;20049;-60
2024/01/09 09:39:10;;;;;;;43.00;15.93;;;;;;;;;;5003817;28;20058;-60
2024/01/09 09:41:57;;;;;;;40.88;15.73;;;;;;;;;;5001752;28;20050;-60
2024/01/09 09:44:52;;;;;;;45.03;16.10;;;;;;;;;;4993091;28;20663;-60
2024/01/09 09:47:39;;;;;;;49.60;16.43;;;;;;;;;;5003873;28;20054;-53
2024/01/09 09:50:33;;;;;;;55.65;17.73;;;;;;;;;;5004623;28;20304;-54
2024/01/09 09:53:22;;;;;;;55.63;18.20;;;;;;;;;;5006603;28;20050;-54
2024/01/09 09:56:15;;;;;;;49.58;17.88;;;;;;;;;;5005554;28;20469;-53
2024/01/09 09:59:11;;;;;;;45.25;16.02;;;;;;;;;;5002973;28;20050;-54
2024/01/09 10:01:58;;;;;;;46.80;16.67;;;;;;;;;;5000228;28;20050;-55
2024/01/09 10:04:53;;;;;;;46.80;16.52;;;;;;;;;;5004952;28;20069;-55
2024/01/09 10:07:48;;;;;;;46.78;15.00;;;;;;;;;;5000850;28;20877;-55
2024/01/09 10:10:35;;;;;;;59.17;17.95;;;;;;;;;;5001534;28;20128;-54
2024/01/09 10:13:29;;;;;;;55.78;18.20;;;;;;;;;;5001733;28;20058;-60
2024/01/09 10:16:16;;;;;;;53.08;17.90;;;;;;;;;;5003805;28;20108;-60
2024/01/09 10:19:10;;;;;;;53.35;17.73;;;;;;;;;;5001920;28;20079;-61
2024/01/09 10:21:57;;;;;;;65.88;18.55;;;;;;;;;;4999391;28;20049;-60
2024/01/09 10:24:51;;;;;;;57.00;17.55;;;;;;;;;;5002493;28;20498;-60
2024/01/09 10:27:39;;;;;;;61.03;19.33;;;;;;;;;;5003439;28;20173;-60
2024/01/09 10:30:41;;;;;;;71.53;20.45;;;;;;;;;;4994622;28;20061;-60
2024/01/09 10:33:39;;;;;;;68.40;19.73;;;;;;;;;;5001930;28;20061;-60
2024/01/09 10:36:32;;;;;;;56.85;19.00;;;;;;;;;;5002583;28;20053;-62
2024/01/09 10:39:19;;;;;;;74.65;19.85;;;;;;;;;;5000828;28;20058;-60
2024/01/09 10:42:13;;;;;;;70.15;20.85;;;;;;;;;;5002603;28;20418;-62
2024/01/09 10:45:09;;;;;;;62.90;20.17;;;;;;;;;;5002741;28;20564;-60
2024/01/09 10:48:04;;;;;;;79.13;21.88;;;;;;;;;;5002072;28;20054;-60
2024/01/09 10:50:52;;;;;;;74.07;21.58;;;;;;;;;;5001121;28;20104;-60
2024/01/09 10:53:47;;;;;;;65.78;20.92;;;;;;;;;;5001399;28;20507;-62
2024/01/09 10:56:36;;;;;;;67.30;20.58;;;;;;;;;;4996234;28;20505;-61
2024/01/09 10:59:33;;;;;;;78.55;20.92;;;;;;;;;;5004228;28;20051;-61
2024/01/09 11:02:21;;;;;;;77.20;21.65;;;;;;;;;;4996135;28;20070;-66
2024/01/09 11:05:14;;;;;;;75.38;20.38;;;;;;;;;;5003251;28;20057;-68
2024/01/09 11:08:05;;;;;;;72.55;19.85;;;;;;;;;;5001822;28;20054;-67
2024/01/09 11:11:00;;;;;;;74.03;22.00;;;;;;;;;;5000920;28;20057;-52
2024/01/09 11:13:49;;;;;;;65.80;19.33;;;;;;;;;;5000928;28;20050;-61
2024/01/09 11:16:44;;;;;;;70.13;19.17;;;;;;;;;;5004702;28;20053;-60
2024/01/09 11:19:31;;;;;;;57.42;18.40;;;;;;;;;;5003049;28;20057;-60
2024/01/09 11:22:25;;;;;;;63.38;19.77;;;;;;;;;;5001697;28;20506;-63
2024/01/09 11:25:20;;;;;;;64.28;19.63;;;;;;;;;;4999843;28;20046;-61
2024/01/09 11:28:33;;;;;;;64.22;17.45;;;;;;;;;;5001921;28;20064;-61
2024/01/09 11:31:28;;;;;;;64.05;18.90;;;;;;;;;;5003623;28;20104;-60
2024/01/09 11:34:29;;;;;;;48.88;15.75;;;;;;;;;;5003628;28;20050;-61
2024/01/09 11:37:18;;;;;;;48.63;15.75;;;;;;;;;;5002898;28;20041;-60
2024/01/09 11:40:13;;;;;;;40.45;15.60;;;;;;;;;;5002823;28;20465;-60
2024/01/09 11:43:00;;;;;;;35.60;12.02;;;;;;;;;;5002993;28;20995;-61
2024/01/09 11:45:54;;;;;;;46.15;15.13;;;;;;;;;;5002010;28;20104;-61
2024/01/09 11:48:48;;;;;;;37.33;13.88;;;;;;;;;;5003337;28;20560;-61
2024/01/09 11:51:43;;;;;;;52.63;17.15;;;;;;;;;;5001404;28;20156;-61
2024/01/09 11:54:31;;;;;;;46.92;14.73;;;;;;;;;;5002394;28;20049;-60
2024/01/09 11:57:25;;;;;;;39.65;14.85;;;;;;;;;;4990143;28;20061;-62
2024/01/09 12:00:12;;;;;;;45.70;15.70;;;;;;;;;;5000381;28;20092;-61
2024/01/09 12:03:06;;;;;;;48.83;17.38;;;;;;;;;;4999867;28;20050;-60
2024/01/09 12:05:53;;;;;;;37.20;14.68;;;;;;;;;;4995830;28;20217;-61
2024/01/09 12:08:47;;;;;;;35.85;13.30;;;;;;;;;;5002564;28;20501;-55
2024/01/09 12:11:35;;;;;;;31.42;11.70;;;;;;;;;;5002358;28;20153;-60
2024/01/09 12:14:29;;;;;;;37.83;14.18;;;;;;;;;;4995959;28;20057;-60
2024/01/09 12:17:23;;;;;;;33.42;13.23;;;;;;;;;;4999668;28;20046;-60
2024/01/09 12:20:17;;;;;;;45.50;13.90;;;;;;;;;;5000582;28;20141;-60
2024/01/09 12:23:11;;;;;;;31.08;13.32;;;;;;;;;;5000746;28;20116;-60
2024/01/09 12:26:27;;;;;;;27.55;11.45;;;;;;;;;;5000101;28;20057;-56
2024/01/09 12:29:13;;;;;;;32.97;11.20;;;;;;;;;;5003353;28;20057;-58
2024/01/09 12:32:15;;;;;;;28.98;11.50;;;;;;;;;;4980007;28;20149;-56
2024/01/09 12:35:04;;;;;;;32.28;12.30;;;;;;;;;;4981386;28;20058;-56
2024/01/09 12:37:56;;;;;;;28.85;12.10;;;;;;;;;;4977705;28;20053;-50
2024/01/09 12:40:44;;;;;;;32.35;12.18;;;;;;;;;;4980002;28;20751;-60
2024/01/09 12:43:37;;;;;;;35.85;13.90;;;;;;;;;;4971663;28;20109;-61
2024/01/09 12:46:29;;;;;;;34.35;12.43;;;;;;;;;;4979862;28;20058;-61
2024/01/09 12:49:23;;;;;;;18.58;9.02;;;;;;;;;;4981004;28;20112;-61
2024/01/09 12:52:30;;;;;;;27.20;13.10;;;;;;;;;;4980744;28;20065;-61
2024/01/09 12:55:25;;;;;;;31.10;12.18;;;;;;;;;;4982286;28;20208;-61
2024/01/09 12:58:11;;;;;;;29.55;10.48;;;;;;;;;;4979649;28;20132;-61
2024/01/09 13:01:05;;;;;;;28.08;10.82;;;;;;;;;;4979785;28;20498;-62
2024/01/09 13:03:54;;;;;;;28.02;11.88;;;;;;;;;;4980784;28;20109;-62
2024/01/09 13:06:49;;;;;;;27.95;13.30;;;;;;;;;;4979815;28;20050;-58
2024/01/09 13:09:36;;;;;;;37.30;13.68;;;;;;;;;;4978992;28;20058;-56
2024/01/09 13:12:30;;;;;;;38.05;13.45;;;;;;;;;;4976328;28;20098;-58
2024/01/09 13:15:17;;;;;;;42.90;13.27;;;;;;;;;;4979105;28;20069;-59
2024/01/09 13:18:11;;;;;;;39.75;13.50;;;;;;;;;;4980287;28;20140;-55
2024/01/09 13:20:58;;;;;;;43.65;14.02;;;;;;;;;;4982206;28;20054;-59
2024/01/09 13:23:52;;;;;;;36.53;13.52;;;;;;;;;;4978208;28;20054;-62
2024/01/09 13:26:42;;;;;;;35.17;13.57;;;;;;;;;;4982170;28;20058;-62
2024/01/09 13:29:36;;;;;;;35.50;14.52;;;;;;;;;;4982250;28;20055;-61
2024/01/09 13:32:33;;;;;;;30.60;12.48;;;;;;;;;;4997713;28;20089;-62
2024/01/09 13:35:27;;;;;;;34.38;12.13;;;;;;;;;;5002451;28;20050;-55
2024/01/09 13:38:16;;;;;;;37.08;13.38;;;;;;;;;;4997034;28;20050;-61
2024/01/09 13:41:12;;;;;;;30.30;12.20;;;;;;;;;;5001530;28;20045;-61
2024/01/09 13:43:58;;;;;;;28.63;13.15;;;;;;;;;;4999865;28;20465;-61
2024/01/09 13:46:55;;;;;;;30.50;12.70;;;;;;;;;;4998550;28;20112;-61
2024/01/09 13:49:39;;;;;;;34.42;14.48;;;;;;;;;;4999931;28;20530;-61
2024/01/09 13:52:36;;;;;;;42.20;14.30;;;;;;;;;;4998991;28;20066;-62
2024/01/09 13:55:26;;;;;;;41.30;14.52;;;;;;;;;;4999296;28;20493;-62
2024/01/09 13:58:17;;;;;;;33.83;14.60;;;;;;;;;;4992787;28;20054;-62
2024/01/09 14:01:04;;;;;;;37.58;15.98;;;;;;;;;;5000435;28;20246;-62
2024/01/09 14:04:15;;;;;;;34.42;15.52;;;;;;;;;;5002984;28;20081;-50
2024/01/09 14:06:57;;;;;;;38.00;15.15;;;;;;;;;;5002901;28;20057;-62
2024/01/09 14:09:50;;;;;;;45.70;16.27;;;;;;;;;;4993304;28;20046;-62
2024/01/09 14:12:37;;;;;;;33.30;15.00;;;;;;;;;;5003012;28;20057;-62
2024/01/09 14:15:33;;;;;;;43.13;15.45;;;;;;;;;;5005018;28;20062;-62
2024/01/09 14:18:18;;;;;;;46.88;16.27;;;;;;;;;;5001733;28;20058;-61
2024/01/09 14:21:13;;;;;;;42.58;15.35;;;;;;;;;;4998291;28;20100;-49
2024/01/09 14:24:07;;;;;;;42.50;14.43;;;;;;;;;;5003480;28;20046;-52
2024/01/09 14:27:01;;;;;;;44.55;15.20;;;;;;;;;;5002610;28;20057;-48
2024/01/09 14:30:09;;;;;;;37.90;14.48;;;;;;;;;;5001641;28;20678;-53
2024/01/09 14:33:03;;;;;;;38.35;15.45;;;;;;;;;;4999536;28;20050;-62
2024/01/09 14:35:59;;;;;;;37.75;15.13;;;;;;;;;;5003731;28;20420;-61
2024/01/09 14:38:44;;;;;;;42.40;16.30;;;;;;;;;;4996799;28;20156;-62
2024/01/09 14:41:38;;;;;;;32.28;14.65;;;;;;;;;;5004053;28;20054;-62
2024/01/09 14:44:25;;;;;;;32.47;13.00;;;;;;;;;;5004760;28;20544;-62
2024/01/09 14:47:19;;;;;;;34.20;13.55;;;;;;;;;;5000062;28;20046;-62
2024/01/09 14:50:07;;;;;;;33.17;11.70;;;;;;;;;;4998148;28;20092;-67
2024/01/09 14:53:00;;;;;;;31.40;13.05;;;;;;;;;;5003776;28;20062;-68
2024/01/09 14:55:47;;;;;;;28.63;12.32;;;;;;;;;;5001719;28;20124;-67
2024/01/09 14:58:41;;;;;;;29.02;12.32;;;;;;;;;;5004356;28;20139;-68
2024/01/09 15:01:35;;;;;;;28.85;12.65;;;;;;;;;;4999732;28;20060;-62
2024/01/09 15:04:22;;;;;;;41.42;12.88;;;;;;;;;;5002208;28;20617;-61
2024/01/09 15:07:17;;;;;;;37.45;14.27;;;;;;;;;;5003896;28;20054;-61
2024/01/09 15:10:09;;;;;;;38.08;13.57;;;;;;;;;;5000747;28;20056;-61
2024/01/09 15:13:03;;;;;;;28.65;11.82;;;;;;;;;;4998684;28;20061;-62
2024/01/09 15:15:50;;;;;;;35.08;13.02;;;;;;;;;;4999897;28;20869;-62
2024/01/09 15:18:50;;;;;;;32.63;13.02;;;;;;;;;;5002149;28;20103;-52
2024/01/09 15:21:37;;;;;;;34.70;12.52;;;;;;;;;;5001046;28;20220;-51
2024/01/09 15:24:31;;;;;;;41.63;12.95;;;;;;;;;;5002328;28;20049;-48
2024/01/09 15:27:18;;;;;;;29.02;10.88;;;;;;;;;;4997983;28;20057;-61
2024/01/09 15:30:25;;;;;;;36.33;12.25;;;;;;;;;;5000870;28;20062;-47
2024/01/09 15:33:19;;;;;;;32.35;12.82;;;;;;;;;;5002439;28;20058;-49
2024/01/09 15:36:13;;;;;;;35.70;12.68;;;;;;;;;;5000722;28;20800;-47
2024/01/09 15:39:01;;;;;;;29.38;14.32;;;;;;;;;;5001441;28;20090;-49
2024/01/09 15:41:55;;;;;;;30.95;11.07;;;;;;;;;;4997863;28;20143;-50
2024/01/09 15:44:49;;;;;;;30.08;11.98;;;;;;;;;;4998701;28;20049;-47
2024/01/09 15:47:36;;;;;;;30.77;11.23;;;;;;;;;;4996248;28;20061;-61
2024/01/09 15:50:30;;;;;;;29.73;10.57;;;;;;;;;;4999275;28;20466;-61
2024/01/09 15:53:17;;;;;;;29.17;11.05;;;;;;;;;;4998651;28;20160;-62
2024/01/09 15:56:20;;;;;;;25.60;11.55;;;;;;;;;;4999355;28;20053;-61
2024/01/09 15:59:07;;;;;;;32.65;13.20;;;;;;;;;;5002332;28;20049;-60
2024/01/09 16:02:01;;;;;;;32.72;12.77;;;;;;;;;;4996665;28;20054;-61
2024/01/09 16:04:48;;;;;;;24.90;10.50;;;;;;;;;;4999634;28;20042;-61
2024/01/09 16:07:43;;;;;;;33.97;11.38;;;;;;;;;;4998654;28;20073;-61
2024/01/09 16:10:30;;;;;;;33.27;11.93;;;;;;;;;;4999018;28;20112;-61
2024/01/09 16:13:26;;;;;;;27.67;11.63;;;;;;;;;;5000917;28;20144;-61
2024/01/09 16:16:18;;;;;;;26.00;10.27;;;;;;;;;;5000497;28;20050;-61
2024/01/09 16:19:12;;;;;;;33.35;11.60;;;;;;;;;;4997466;28;20516;-60
2024/01/09 16:21:59;;;;;;;25.30;10.60;;;;;;;;;;4990477;28;20388;-60
2024/01/09 16:24:53;;;;;;;27.80;10.15;;;;;;;;;;4997922;28;20056;-62
2024/01/09 16:27:40;;;;;;;32.10;10.90;;;;;;;;;;4999982;28;20073;-54
2024/01/09 16:30:43;;;;;;;39.47;13.02;;;;;;;;;;4999008;28;20058;-54
2024/01/09 16:33:30;;;;;;;30.50;13.82;;;;;;;;;;4993352;28;20054;-58
2024/01/09 16:36:25;;;;;;;34.00;12.57;;;;;;;;;;4999070;28;20052;-57
2024/01/09 16:39:12;;;;;;;33.05;11.73;;;;;;;;;;4991577;28;20675;-56
2024/01/09 16:42:05;;;;;;;34.75;11.52;;;;;;;;;;4998783;28;20053;-56
2024/01/09 16:44:52;;;;;;;26.60;10.85;;;;;;;;;;4990859;28;20627;-62